Time;durP1;ratioP1;P1;durP2;ratioP2;P2;SDS_P1;SDS_P2;PMS_P1;PMS_P2;Temp;Humidity;BMP_temperature;BMP_pressure;BME280_temperature;BME280_humidity;BME280_pressure;Samples;Min_cycle;Max_cycle;Signal;HPM_P1;HPM_P2
2023/01/12 00:02:12;;;;;;;10.48;7.97;;;;;;;9.12;92.50;99979.63;5135608;27;20616;-69
2023/01/12 00:04:38;;;;;;;11.55;8.00;;;;;;;9.12;92.29;99987.56;5138234;27;20074;-70
2023/01/12 00:07:09;;;;;;;10.77;7.22;;;;;;;9.15;92.08;99986.44;5136554;27;20027;-68
2023/01/12 00:09:34;;;;;;;10.35;7.68;;;;;;;9.12;91.81;99984.91;5134726;27;20035;-68
2023/01/12 00:12:05;;;;;;;10.57;6.63;;;;;;;9.17;91.32;99987.94;5133516;27;20023;-68
2023/01/12 00:14:35;;;;;;;10.65;7.10;;;;;;;9.16;91.29;99991.56;5135658;27;20042;-68
2023/01/12 00:17:01;;;;;;;12.07;6.80;;;;;;;9.09;91.58;99997.59;5133864;27;20330;-69
2023/01/12 00:19:26;;;;;;;10.25;6.82;;;;;;;9.14;91.21;100001.44;5134943;27;20103;-69
2023/01/12 00:24:29;;;;;;;9.43;6.45;;;;;;;9.10;91.77;100010.66;5132853;27;20027;-68
2023/01/12 00:26:57;;;;;;;9.85;6.85;;;;;;;9.07;91.64;100013.59;5134776;27;20060;-69
2023/01/12 00:29:24;;;;;;;9.18;6.13;;;;;;;9.16;91.44;100020.63;5133406;27;20101;-69
2023/01/12 00:31:50;;;;;;;10.75;7.00;;;;;;;9.15;91.76;100011.03;5134255;27;20236;-67
2023/01/12 00:34:16;;;;;;;9.40;6.28;;;;;;;9.10;91.54;100005.38;5134802;27;20340;-68
2023/01/12 00:36:43;;;;;;;12.18;7.35;;;;;;;9.18;91.00;100013.38;5134169;27;20098;-68
2023/01/12 00:39:08;;;;;;;12.30;7.43;;;;;;;9.16;90.38;100022.44;5134781;27;20139;-68
2023/01/12 00:47:06;;;;;;;9.73;6.35;;;;;;;9.12;90.51;100018.44;5132218;27;20083;-68
2023/01/12 00:49:32;;;;;;;9.57;6.35;;;;;;;9.04;90.57;100021.78;5133474;27;20039;-67
2023/01/12 00:51:57;;;;;;;10.65;6.80;;;;;;;8.94;90.54;100015.72;5133539;27;20054;-69
2023/01/12 00:54:22;;;;;;;9.82;6.32;;;;;;;8.96;90.95;100022.53;5133160;27;20046;-69
2023/01/12 00:56:48;;;;;;;10.15;6.78;;;;;;;8.96;91.08;100024.34;5135688;27;20042;-68
2023/01/12 00:59:13;;;;;;;8.90;6.20;;;;;;;8.87;91.25;100028.66;5133547;27;20041;-67
2023/01/12 01:01:39;;;;;;;10.30;6.63;;;;;;;8.85;90.88;100022.72;5135300;27;20065;-68
2023/01/12 01:04:04;;;;;;;13.27;8.15;;;;;;;8.87;91.52;100028.66;5133383;27;20057;-69
2023/01/12 01:06:30;;;;;;;9.95;6.20;;;;;;;8.91;91.50;100026.56;5135566;27;20034;-67
2023/01/12 01:08:55;;;;;;;11.65;7.03;;;;;;;8.82;90.90;100020.34;5133244;27;20103;-68
2023/01/12 01:11:20;;;;;;;7.65;5.78;;;;;;;8.86;90.84;100028.81;5134297;27;20076;-68
2023/01/12 01:13:46;;;;;;;7.82;6.72;;;;;;;8.77;91.52;100032.31;5132825;27;20454;-69
2023/01/12 01:16:15;;;;;;;10.40;6.75;;;;;;;8.72;91.38;100026.63;5133475;27;20031;-69
2023/01/12 01:18:41;;;;;;;11.00;7.18;;;;;;;8.59;92.03;100030.41;5133925;27;20347;-68
2023/01/12 01:21:08;;;;;;;9.52;6.63;;;;;;;8.76;92.19;100031.50;5133413;27;20023;-68
2023/01/12 01:23:35;;;;;;;10.70;7.10;;;;;;;8.80;92.38;100037.31;5133481;27;20374;-69
2023/01/12 01:26:05;;;;;;;11.75;7.63;;;;;;;8.76;92.45;100034.13;5133450;27;20217;-69
2023/01/12 01:28:31;;;;;;;11.80;7.35;;;;;;;8.85;92.52;100032.44;5133203;27;20031;-68
2023/01/12 01:31:04;;;;;;;9.52;7.22;;;;;;;8.90;92.55;100038.94;5132466;27;20489;-68
2023/01/12 01:33:30;;;;;;;9.57;7.15;;;;;;;8.76;92.03;100028.84;5130962;27;20039;-68
2023/01/12 01:35:56;;;;;;;11.07;7.47;;;;;;;8.86;92.65;100023.53;5133471;27;20033;-69
2023/01/12 01:38:22;;;;;;;10.55;7.78;;;;;;;8.84;92.54;100020.22;5131649;27;20031;-68
2023/01/12 01:40:47;;;;;;;11.90;7.35;;;;;;;8.83;92.10;100021.19;5132979;27;20411;-68
2023/01/12 01:43:15;;;;;;;11.77;7.82;;;;;;;8.83;92.40;100022.00;5132992;27;20038;-68
2023/01/12 01:45:44;;;;;;;10.18;7.43;;;;;;;8.83;91.60;100016.72;5133912;27;20039;-69
2023/01/12 01:48:13;;;;;;;10.38;6.43;;;;;;;8.73;91.75;100000.09;5134387;27;20440;-68
2023/01/12 01:50:45;;;;;;;10.38;7.30;;;;;;;8.83;92.06;100021.19;5133139;27;20463;-68
2023/01/12 01:53:19;;;;;;;10.20;6.95;;;;;;;8.83;92.00;100024.66;5131767;27;20355;-68
2023/01/12 01:55:49;;;;;;;;;;;;;;;8.89;91.19;100018.78;5133661;27;20031;-68
2023/01/12 01:58:33;;;;;;;11.32;7.25;;;;;;;8.96;91.49;100019.06;5133611;27;20145;-68
2023/01/12 02:00:58;;;;;;;9.80;7.03;;;;;;;8.84;91.04;100018.41;5134946;27;20052;-69
2023/01/12 02:03:25;;;;;;;10.25;6.95;;;;;;;8.77;91.24;100019.13;5132329;27;20530;-68
2023/01/12 02:05:52;;;;;;;9.77;6.80;;;;;;;8.69;92.18;100019.84;5133202;27;20469;-68
2023/01/12 02:08:59;;;;;;;10.77;6.55;;;;;;;8.59;93.25;100019.88;5132316;27;20220;-68
2023/01/12 02:17:48;;;;;;;10.20;7.03;;;;;;;8.63;93.44;100015.13;5130269;27;20107;-68
2023/01/12 02:20:51;;;;;;;10.77;6.95;;;;;;;8.72;92.87;100024.81;5041959;28;20047;-68
2023/01/12 02:23:41;;;;;;;8.43;5.90;;;;;;;8.61;92.42;100028.47;5038392;28;20272;-68
2023/01/12 02:26:12;;;;;;;9.63;6.63;;;;;;;8.56;92.96;100032.50;5118439;27;20044;-69
2023/01/12 02:28:38;;;;;;;11.50;7.38;;;;;;;8.57;93.65;100027.09;5132297;27;20328;-68
2023/01/12 02:31:25;;;;;;;10.57;7.28;;;;;;;8.55;94.24;100017.66;5132485;27;20122;-67
2023/01/12 02:33:58;;;;;;;10.15;6.68;;;;;;;8.54;94.33;100021.25;5133049;27;20104;-68
2023/01/12 02:36:43;;;;;;;13.18;8.02;;;;;;;8.52;93.88;100021.41;5132052;27;20027;-69
2023/01/12 02:39:30;;;;;;;15.45;7.75;;;;;;;8.53;94.16;100022.25;5132696;27;20043;-68
2023/01/12 02:45:20;;;;;;;10.80;6.88;;;;;;;8.29;94.64;100020.00;5132903;27;20270;-68
2023/01/12 02:48:04;;;;;;;8.43;5.85;;;;;;;8.16;94.90;100015.00;5132419;27;20046;-68
2023/01/12 02:50:36;;;;;;;9.23;5.97;;;;;;;8.19;94.61;100014.72;5131203;27;20039;-69
2023/01/12 02:53:09;;;;;;;7.93;6.10;;;;;;;8.13;94.86;100014.44;5132396;27;20031;-68
2023/01/12 02:55:36;;;;;;;7.53;6.05;;;;;;;8.06;94.82;100016.81;5130205;27;20106;-67
2023/01/12 02:58:06;;;;;;;8.93;6.32;;;;;;;7.97;94.62;100013.22;5129534;27;20258;-68
2023/01/12 03:00:37;;;;;;;11.15;6.43;;;;;;;8.14;94.61;100011.69;5130493;27;20106;-69
2023/01/12 03:03:03;;;;;;;9.68;6.03;;;;;;;8.19;94.17;100012.09;5129591;27;20221;-68
2023/01/12 03:05:28;;;;;;;9.07;6.13;;;;;;;8.10;94.01;100020.84;5131647;27;20318;-67
2023/01/12 03:08:04;;;;;;;8.15;5.45;;;;;;;8.26;94.48;100015.81;5132836;27;20482;-68
2023/01/12 03:10:38;;;;;;;9.27;6.07;;;;;;;8.33;93.58;100024.06;5131903;27;20260;-68
2023/01/12 03:13:09;;;;;;;9.85;6.22;;;;;;;8.24;93.67;100023.06;5131185;27;20084;-69
2023/01/12 03:15:43;;;;;;;11.38;6.18;;;;;;;8.45;93.33;100022.13;5130408;27;20129;-68
2023/01/12 03:18:19;;;;;;;8.57;5.95;;;;;;;8.32;93.28;100022.34;5130918;27;20300;-67
2023/01/12 03:20:52;;;;;;;8.43;5.93;;;;;;;8.60;92.94;100023.34;5130483;27;20039;-68
2023/01/12 03:23:22;;;;;;;9.25;6.18;;;;;;;8.70;92.90;100025.94;5131108;27;20076;-69
2023/01/12 03:25:51;;;;;;;10.02;6.47;;;;;;;8.73;92.78;100026.50;5132098;27;20034;-69
2023/01/12 03:28:20;;;;;;;8.98;5.72;;;;;;;8.61;92.75;100017.09;5129377;27;20356;-67
2023/01/12 03:30:55;;;;;;;7.32;4.75;;;;;;;8.55;93.17;100025.56;5130455;27;20031;-68
2023/01/12 03:33:22;;;;;;;8.05;5.47;;;;;;;8.54;93.82;100023.91;5130887;27;20102;-69
2023/01/12 03:36:12;;;;;;;8.38;5.60;;;;;;;8.57;94.18;100027.09;5129490;27;20294;-68
2023/01/12 03:38:50;;;;;;;8.88;5.60;;;;;;;8.55;94.56;100028.22;5134701;27;20035;-68
2023/01/12 03:41:36;;;;;;;7.38;4.95;;;;;;;8.54;94.90;100023.91;5133533;27;20031;-68
2023/01/12 03:44:07;;;;;;;6.57;4.97;;;;;;;8.48;94.82;100027.94;5134390;27;20353;-68
2023/01/12 03:46:41;;;;;;;8.73;5.25;;;;;;;8.35;95.88;100034.50;5136671;27;20255;-68
2023/01/12 03:49:16;;;;;;;8.55;5.47;;;;;;;8.18;96.12;100031.53;5135575;27;20035;-68
2023/01/12 03:51:46;;;;;;;8.00;5.32;;;;;;;8.12;97.06;100029.44;5132900;27;20045;-68
2023/01/12 03:54:13;;;;;;;7.22;5.00;;;;;;;8.09;96.71;100020.97;5134389;27;20066;-68
2023/01/12 03:56:41;;;;;;;8.80;5.80;;;;;;;8.09;96.96;100021.81;5135788;27;20080;-69
2023/01/12 03:59:08;;;;;;;6.82;4.95;;;;;;;8.08;97.65;100025.41;5132152;27;20050;-68
2023/01/12 04:01:34;;;;;;;10.73;5.65;;;;;;;8.02;97.98;100018.91;5135312;27;20332;-68
2023/01/12 04:03:59;;;;;;;10.10;5.82;;;;;;;8.04;98.18;100026.66;5135325;27;20072;-68
2023/01/12 04:06:25;;;;;;;8.30;6.10;;;;;;;8.00;98.45;100023.47;5134887;27;20031;-68
2023/01/12 04:08:51;;;;;;;8.23;5.25;;;;;;;7.99;98.54;100024.44;5135567;27;20039;-69
2023/01/12 04:14:00;;;;;;;11.05;7.22;;;;;;;8.08;97.66;100028.06;5135073;27;20322;-67
2023/01/12 04:16:25;;;;;;;7.93;5.90;;;;;;;8.04;98.16;100036.38;5134447;27;20308;-68
2023/01/12 04:18:51;;;;;;;8.98;5.00;;;;;;;8.05;97.96;100036.25;5135929;27;20039;-69
2023/01/12 04:24:00;;;;;;;7.68;4.78;;;;;;;8.02;98.09;100040.00;5134931;27;20058;-68
2023/01/12 04:26:26;;;;;;;9.20;5.45;;;;;;;8.07;97.50;100041.38;5136859;27;20324;-68
2023/01/12 04:28:51;;;;;;;6.45;3.75;;;;;;;8.18;97.30;100044.72;5133964;27;20043;-68
2023/01/12 04:31:17;;;;;;;6.97;4.25;;;;;;;8.27;96.55;100046.50;5132099;27;20031;-67
2023/01/12 04:33:42;;;;;;;5.43;3.88;;;;;;;8.28;95.93;100056.09;5134671;27;20107;-68
2023/01/12 04:36:12;;;;;;;4.68;3.65;;;;;;;8.45;95.17;100057.25;5133958;27;20034;-68
2023/01/12 04:38:38;;;;;;;5.28;4.05;;;;;;;8.45;94.66;100051.16;5135612;27;20039;-68
2023/01/12 04:41:05;;;;;;;5.13;3.67;;;;;;;8.49;94.38;100060.44;5134180;27;20045;-68
2023/01/12 04:43:31;;;;;;;5.13;3.67;;;;;;;8.56;93.71;100058.91;5135295;27;20202;-69
2023/01/12 04:45:56;;;;;;;4.93;3.78;;;;;;;8.62;93.65;100059.16;5133613;27;20151;-69
2023/01/12 04:48:22;;;;;;;4.78;3.42;;;;;;;8.75;93.57;100060.69;5134941;27;20041;-68
2023/01/12 04:50:49;;;;;;;5.10;4.22;;;;;;;8.77;93.18;100064.84;5132398;27;20383;-68
2023/01/12 04:53:15;;;;;;;6.38;4.47;;;;;;;8.81;92.79;100068.03;5133830;27;20035;-69
2023/01/12 04:55:42;;;;;;;5.80;4.10;;;;;;;8.80;92.35;100071.63;5133785;27;20200;-68
2023/01/12 04:58:08;;;;;;;6.05;4.43;;;;;;;8.75;92.59;100074.72;5132587;27;20043;-67
2023/01/12 05:00:34;;;;;;;4.90;3.83;;;;;;;8.75;91.95;100077.34;5134716;27;20042;-68
2023/01/12 05:03:01;;;;;;;5.35;4.07;;;;;;;8.83;91.99;100082.75;5133842;27;20027;-68
2023/01/12 05:05:32;;;;;;;5.30;3.55;;;;;;;8.85;90.92;100070.25;5137391;27;20225;-69
2023/01/12 05:10:42;;;;;;;6.28;4.40;;;;;;;8.74;91.31;100072.22;5132751;27;20042;-68
2023/01/12 05:13:08;;;;;;;5.38;4.25;;;;;;;8.80;90.65;100080.41;5134525;27;20039;-68
2023/01/12 05:15:33;;;;;;;6.50;4.28;;;;;;;8.79;90.94;100080.53;5134918;27;20027;-68
2023/01/12 05:17:58;;;;;;;6.70;4.15;;;;;;;8.78;90.92;100084.97;5133855;27;20107;-69
2023/01/12 05:20:24;;;;;;;5.72;3.85;;;;;;;8.84;91.35;100079.13;5134768;27;20468;-68
2023/01/12 05:22:51;;;;;;;6.05;3.83;;;;;;;8.61;91.44;100075.16;5132955;27;20031;-68
2023/01/12 05:25:17;;;;;;;5.05;3.55;;;;;;;8.79;91.56;100076.09;5134546;27;20041;-69
2023/01/12 05:27:42;;;;;;;7.53;4.32;;;;;;;8.79;91.50;100083.19;5133487;27;20027;-69
2023/01/12 05:30:08;;;;;;;5.75;4.18;;;;;;;8.72;91.65;100082.06;5133054;27;20038;-68
2023/01/12 05:32:38;;;;;;;7.60;4.65;;;;;;;8.77;91.15;100077.19;5133983;27;20051;-68
2023/01/12 05:35:07;;;;;;;7.63;5.70;;;;;;;8.72;91.17;100084.72;5133119;27;20047;-68
2023/01/12 05:37:33;;;;;;;7.80;4.28;;;;;;;8.66;91.08;100085.28;5133320;27;20061;-69
2023/01/12 05:39:59;;;;;;;6.75;4.57;;;;;;;8.71;90.93;100091.81;5133229;27;20031;-69
2023/01/12 05:45:09;;;;;;;5.97;4.30;;;;;;;8.69;91.11;100087.63;5132645;27;20381;-68
2023/01/12 05:47:35;;;;;;;6.30;4.07;;;;;;;8.67;91.74;100090.41;5133454;27;20059;-69
2023/01/12 05:50:00;;;;;;;6.43;4.47;;;;;;;8.67;91.61;100089.59;5134065;27;20039;-69
2023/01/12 05:52:26;;;;;;;5.95;4.35;;;;;;;8.64;92.06;100085.44;5133839;27;20037;-68
2023/01/12 05:54:51;;;;;;;7.82;4.80;;;;;;;8.71;91.97;100086.53;5133019;27;20088;-68
2023/01/12 05:57:16;;;;;;;9.02;5.72;;;;;;;8.74;92.01;100085.41;5134487;27;20264;-68
2023/01/12 05:59:42;;;;;;;10.30;5.43;;;;;;;8.80;92.01;100090.13;5132731;27;20031;-68
2023/01/12 06:02:10;;;;;;;7.10;4.78;;;;;;;8.84;91.41;100092.34;5134367;27;20023;-69
2023/01/12 06:04:37;;;;;;;10.55;6.10;;;;;;;8.85;90.82;100095.81;5132262;27;20351;-67
2023/01/12 06:07:02;;;;;;;9.63;5.97;;;;;;;8.91;90.80;100093.44;5123920;27;20031;-67
2023/01/12 06:09:28;;;;;;;11.85;6.93;;;;;;;8.82;90.67;100091.66;5122989;27;20066;-68
2023/01/12 06:14:37;;;;;;;9.02;5.47;;;;;;;8.91;90.41;100101.34;5126033;27;20046;-70
2023/01/12 06:17:02;;;;;;;8.38;5.68;;;;;;;8.91;90.59;100093.44;5124314;27;20027;-69
2023/01/12 06:19:28;;;;;;;7.38;5.32;;;;;;;8.82;90.90;100096.94;5124614;27;20381;-68
2023/01/12 06:21:54;;;;;;;9.57;5.82;;;;;;;8.88;90.93;100103.44;5121558;27;20039;-68
2023/01/12 06:24:20;;;;;;;8.75;5.40;;;;;;;8.98;90.86;100106.06;5119575;27;20089;-69
2023/01/12 06:26:45;;;;;;;7.22;5.53;;;;;;;9.08;90.93;100107.69;5127274;27;20023;-69
2023/01/12 06:29:12;;;;;;;9.25;5.45;;;;;;;9.06;90.87;100112.28;5120914;27;20216;-68
2023/01/12 06:31:38;;;;;;;6.65;4.72;;;;;;;9.14;90.64;100112.41;5125707;27;20050;-68
2023/01/12 06:34:03;;;;;;;6.20;4.35;;;;;;;9.16;90.63;100114.91;5121362;27;20116;-68
2023/01/12 06:36:29;;;;;;;6.65;4.40;;;;;;;9.18;90.26;100105.03;5121486;27;20039;-68
2023/01/12 06:38:54;;;;;;;7.68;4.68;;;;;;;9.22;89.88;100114.34;5122271;27;20092;-69
2023/01/12 06:44:04;;;;;;;;;;;;;;;9.29;89.22;100121.53;5120448;27;20406;-68
2023/01/12 06:46:29;;;;;;;7.07;4.65;;;;;;;9.29;89.42;100115.41;5120269;27;19986;-68
2023/01/12 06:48:56;;;;;;;7.60;5.18;;;;;;;9.32;90.36;100116.94;5120654;27;20233;-69
2023/01/12 06:51:22;;;;;;;7.03;4.93;;;;;;;9.30;90.02;100125.00;5121793;27;20027;-69
2023/01/12 06:53:48;;;;;;;6.55;4.88;;;;;;;9.36;89.48;100128.88;5120497;28;20088;-67
2023/01/12 06:56:13;;;;;;;6.43;4.65;;;;;;;9.40;89.87;100133.78;5120363;28;20042;-67
2023/01/12 06:58:41;;;;;;;8.30;5.30;;;;;;;9.49;89.64;100124.97;5120089;28;20028;-68
2023/01/12 07:01:07;;;;;;;8.52;6.30;;;;;;;9.53;89.22;100125.50;5119505;28;20043;-68
2023/01/12 07:03:32;;;;;;;9.50;6.18;;;;;;;9.57;88.83;100129.53;5122028;28;20035;-69
2023/01/12 07:05:59;;;;;;;11.00;6.68;;;;;;;9.59;88.93;100125.75;5104169;28;20027;-69
2023/01/12 07:08:25;;;;;;;11.25;6.88;;;;;;;9.68;88.95;100131.97;5135489;28;20488;-68
2023/01/12 07:10:50;;;;;;;10.05;7.13;;;;;;;9.67;88.46;100129.47;5121317;27;20039;-67
2023/01/12 07:13:16;;;;;;;9.98;6.68;;;;;;;9.72;87.78;100127.22;5124981;27;20035;-69
2023/01/12 07:15:41;;;;;;;8.82;6.57;;;;;;;9.64;87.62;100125.31;5123907;27;20287;-69
2023/01/12 07:18:06;;;;;;;11.05;6.32;;;;;;;9.56;88.81;100128.69;5126700;27;20048;-68
2023/01/12 07:20:32;;;;;;;9.77;6.75;;;;;;;9.42;89.09;100123.88;5126536;27;20042;-68
2023/01/12 07:22:58;;;;;;;16.50;11.35;;;;;;;9.40;90.05;100133.78;5124959;27;20031;-68
2023/01/12 07:25:24;;;;;;;10.00;8.10;;;;;;;9.31;90.22;100129.31;5123316;27;20031;-69
2023/01/12 07:27:57;;;;;;;10.13;8.20;;;;;;;9.24;91.28;100131.72;5123744;27;20420;-68
2023/01/12 07:30:23;;;;;;;11.43;8.47;;;;;;;9.20;91.99;100135.63;5131250;27;20068;-68
2023/01/12 07:32:49;;;;;;;11.60;7.90;;;;;;;9.20;92.05;100132.13;5135749;27;20471;-68
2023/01/12 07:35:15;;;;;;;12.10;7.47;;;;;;;9.16;92.71;100136.88;5134980;27;20042;-68
2023/01/12 07:37:48;;;;;;;10.27;6.95;;;;;;;9.10;93.13;100136.63;5136250;27;20639;-68
2023/01/12 07:40:15;;;;;;;11.90;7.97;;;;;;;9.12;93.52;100139.94;5136284;27;20243;-67
2023/01/12 07:42:40;;;;;;;12.88;8.10;;;;;;;9.04;94.15;100142.47;5135974;27;20043;-67
2023/01/12 07:45:06;;;;;;;10.60;6.78;;;;;;;8.94;94.34;100143.31;5137466;27;20041;-69
2023/01/12 07:47:31;;;;;;;7.88;5.07;;;;;;;8.89;95.04;100145.56;5136506;27;20575;-68
2023/01/12 07:49:57;;;;;;;9.57;5.65;;;;;;;8.84;95.80;100147.78;5135596;27;20043;-67
2023/01/12 07:52:22;;;;;;;6.80;4.68;;;;;;;8.54;95.81;100161.16;5135903;27;20031;-67
2023/01/12 07:54:48;;;;;;;8.70;5.20;;;;;;;8.65;96.38;100161.00;5134896;27;20080;-68
2023/01/12 07:57:13;;;;;;;8.98;6.07;;;;;;;8.71;96.63;100155.16;5134181;27;20039;-68
2023/01/12 07:59:38;;;;;;;9.88;5.68;;;;;;;8.72;96.80;100156.84;5136258;27;20061;-69
2023/01/12 08:02:05;;;;;;;8.70;5.60;;;;;;;8.93;96.90;100159.31;5132336;27;20226;-68
2023/01/12 08:04:31;;;;;;;10.43;5.93;;;;;;;9.01;97.10;100156.78;5133545;27;20039;-68
2023/01/12 08:06:56;;;;;;;8.63;5.75;;;;;;;9.11;97.07;100160.25;5135623;27;20031;-67
2023/01/12 08:09:22;;;;;;;8.23;5.60;;;;;;;9.18;95.91;100164.00;5135224;27;20108;-69
2023/01/12 08:11:47;;;;;;;14.15;7.55;;;;;;;9.13;94.75;100162.75;5136165;27;20102;-69
2023/01/12 08:14:24;;;;;;;12.40;7.78;;;;;;;9.16;93.99;100165.94;5135577;27;20335;-68
2023/01/12 08:16:52;;;;;;;11.82;7.00;;;;;;;9.04;93.42;100167.06;5134618;27;20035;-68
2023/01/12 08:19:25;;;;;;;8.38;5.72;;;;;;;8.88;93.91;100162.38;5133636;27;20062;-69
2023/01/12 08:21:57;;;;;;;10.37;6.90;;;;;;;8.84;94.34;100163.63;5133011;27;20364;-69
2023/01/12 08:24:27;;;;;;;10.10;6.00;;;;;;;8.85;95.01;100170.59;5133796;27;20393;-68
2023/01/12 08:26:57;;;;;;;10.18;6.00;;;;;;;8.76;94.66;100181.97;5134332;27;20097;-68
2023/01/12 08:29:30;;;;;;;9.68;5.55;;;;;;;8.75;95.20;100172.41;5136494;27;20039;-68
2023/01/12 08:32:03;;;;;;;11.63;7.20;;;;;;;8.79;95.07;100162.38;5132723;27;20112;-69
2023/01/12 08:34:29;;;;;;;9.57;5.72;;;;;;;8.77;94.36;100165.16;5135544;27;20072;-69
2023/01/12 08:36:59;;;;;;;7.47;5.50;;;;;;;8.79;94.96;100165.03;5139073;27;20046;-67
2023/01/12 08:39:24;;;;;;;6.72;4.97;;;;;;;8.91;94.57;100174.47;5140768;27;20043;-68
2023/01/12 08:41:50;;;;;;;6.65;4.57;;;;;;;8.73;93.63;100170.88;5140350;27;20084;-68
2023/01/12 08:44:16;;;;;;;9.50;5.63;;;;;;;8.96;93.96;100172.22;5140182;27;20035;-69
2023/01/12 08:46:47;;;;;;;7.25;5.55;;;;;;;8.97;93.23;100171.25;5139716;27;20029;-67
2023/01/12 08:49:15;;;;;;;9.63;6.10;;;;;;;9.03;93.37;100178.63;5139147;27;20063;-68
2023/01/12 08:51:40;;;;;;;11.43;5.93;;;;;;;9.01;92.85;100150.69;5139368;27;20113;-68
2023/01/12 08:54:07;;;;;;;9.82;5.43;;;;;;;9.24;92.35;100170.50;5137178;27;20046;-69
2023/01/12 08:56:33;;;;;;;10.60;5.88;;;;;;;9.21;92.31;100168.97;5140529;27;20225;-69
2023/01/12 08:58:59;;;;;;;10.25;5.60;;;;;;;9.21;91.86;100171.63;5140016;27;20102;-68
2023/01/12 09:01:24;;;;;;;8.98;5.45;;;;;;;9.26;92.36;100168.56;5140568;27;20027;-68
2023/01/12 09:03:49;;;;;;;12.32;6.25;;;;;;;9.34;92.37;100166.03;5139333;27;20043;-68
2023/01/12 09:06:28;;;;;;;12.52;7.00;;;;;;;9.32;92.81;100169.78;5140583;27;20023;-68
2023/01/12 09:08:58;;;;;;;12.05;6.38;;;;;;;9.32;93.13;100169.78;5140340;27;20027;-69
2023/01/12 09:11:28;;;;;;;11.20;6.28;;;;;;;9.21;93.82;100162.88;5140263;27;20047;-68
2023/01/12 09:13:57;;;;;;;10.75;6.07;;;;;;;9.27;94.80;100162.28;5140047;27;20061;-68
2023/01/12 09:16:24;;;;;;;10.73;6.65;;;;;;;9.29;95.16;100170.91;5139229;27;20328;-69
2023/01/12 09:18:50;;;;;;;9.57;6.07;;;;;;;9.41;95.42;100161.88;5139431;27;20041;-69
2023/01/12 09:21:18;;;;;;;8.02;5.40;;;;;;;9.45;94.54;100154.47;5139051;27;20118;-67
2023/01/12 09:23:44;;;;;;;7.32;4.47;;;;;;;9.30;93.61;100164.66;5139531;27;20031;-69
2023/01/12 09:26:18;;;;;;;6.47;4.18;;;;;;;9.27;93.13;100162.28;5139618;27;20039;-69
2023/01/12 09:28:45;;;;;;;8.27;5.13;;;;;;;9.10;94.28;100165.69;5139568;27;20023;-67
2023/01/12 09:31:16;;;;;;;7.43;4.20;;;;;;;9.23;93.24;100167.03;5139784;27;20031;-68
2023/01/12 09:33:42;;;;;;;8.00;4.97;;;;;;;9.41;91.94;100167.16;5138386;27;20042;-69
2023/01/12 09:36:19;;;;;;;7.25;4.30;;;;;;;9.53;92.11;100157.22;5139086;27;20108;-69
2023/01/12 09:38:46;;;;;;;8.73;5.05;;;;;;;9.37;92.19;100165.78;5139239;27;20027;-68
2023/01/12 09:47:14;;;;;;;5.97;4.10;;;;;;;9.44;90.02;100158.94;5138272;27;20054;-68
2023/01/12 09:49:45;;;;;;;7.13;4.50;;;;;;;9.46;90.81;100159.63;5138877;27;20039;-68
2023/01/12 09:52:28;;;;;;;9.02;4.25;;;;;;;9.59;88.26;100154.00;5137949;27;20039;-69
2023/01/12 09:54:53;;;;;;;7.43;3.72;;;;;;;9.54;88.47;100149.16;5138734;27;20043;-68
2023/01/12 09:57:40;;;;;;;5.95;4.13;;;;;;;9.49;87.81;100147.94;5138656;27;20045;-68
2023/01/12 10:00:11;;;;;;;8.52;4.70;;;;;;;9.64;88.21;100149.13;5138505;27;20043;-69
2023/01/12 10:02:40;;;;;;;7.43;4.55;;;;;;;9.58;87.91;100139.13;5138885;27;20023;-69
2023/01/12 10:05:26;;;;;;;7.22;4.20;;;;;;;9.60;87.44;100142.44;5138673;27;20110;-67
2023/01/12 10:07:54;;;;;;;5.15;3.63;;;;;;;9.87;87.54;100142.44;5139066;27;20027;-68
2023/01/12 10:10:19;;;;;;;6.15;4.43;;;;;;;10.02;88.13;100136.66;5138554;27;20352;-68
2023/01/12 10:12:51;;;;;;;7.30;4.32;;;;;;;9.95;86.22;100130.31;5138592;27;20198;-69
2023/01/12 10:15:48;;;;;;;7.05;4.30;;;;;;;10.06;85.61;100130.91;5137062;27;20038;-69
2023/01/12 10:18:27;;;;;;;4.95;3.75;;;;;;;10.03;85.90;100130.38;5138473;27;20035;-68
2023/01/12 10:20:53;;;;;;;7.13;4.10;;;;;;;10.07;86.11;100118.53;5138355;27;20524;-68
2023/01/12 10:23:23;;;;;;;6.00;3.75;;;;;;;10.00;85.94;100109.53;5137745;27;20023;-69
2023/01/12 10:26:16;;;;;;;6.68;4.82;;;;;;;9.96;86.15;100118.75;5138692;27;20090;-69
2023/01/12 10:28:45;;;;;;;9.05;4.43;;;;;;;9.88;86.09;100120.31;5138033;27;20042;-68
2023/01/12 10:31:17;;;;;;;6.47;3.65;;;;;;;10.01;86.20;100119.13;5138779;27;20216;-69
2023/01/12 10:34:10;;;;;;;6.10;3.90;;;;;;;9.94;85.35;100121.53;5137567;27;20062;-69
2023/01/12 10:36:52;;;;;;;8.52;4.38;;;;;;;9.90;85.41;100118.34;5138588;27;20054;-68
2023/01/12 10:39:31;;;;;;;12.70;6.43;;;;;;;10.00;85.92;100117.47;5141972;27;20035;-68
2023/01/12 10:45:14;;;;;;;10.48;5.80;;;;;;;10.12;86.29;100113.63;5138351;27;20264;-69
2023/01/12 10:47:41;;;;;;;9.43;5.95;;;;;;;10.14;85.72;100111.66;5137531;27;20031;-68
2023/01/12 10:50:31;;;;;;;7.30;4.78;;;;;;;10.19;84.85;100109.38;5137322;27;20031;-68
2023/01/12 10:53:14;;;;;;;13.05;6.97;;;;;;;10.00;86.72;100096.28;5136437;27;20035;-68
2023/01/12 10:55:41;;;;;;;11.88;6.63;;;;;;;10.08;84.95;100096.38;5137289;27;20043;-69
2023/01/12 10:58:29;;;;;;;10.40;6.05;;;;;;;10.11;84.62;100098.72;5138117;27;20054;-69
2023/01/12 11:00:55;;;;;;;8.98;5.35;;;;;;;10.26;85.98;100094.59;5136800;27;20031;-68
2023/01/12 11:03:36;;;;;;;5.25;4.03;;;;;;;10.42;85.42;100091.28;5137173;27;20039;-68
2023/01/12 11:06:29;;;;;;;7.22;4.75;;;;;;;10.39;84.41;100096.88;5119840;27;20112;-69
2023/01/12 11:08:55;;;;;;;6.13;4.00;;;;;;;10.55;84.48;100107.63;5137259;27;20067;-69
2023/01/12 11:11:28;;;;;;;9.57;5.00;;;;;;;10.37;83.16;100102.31;5137923;27;20035;-68
2023/01/12 11:13:59;;;;;;;8.38;4.57;;;;;;;10.57;83.45;100097.72;5138219;27;20066;-68
2023/01/12 11:16:30;;;;;;;6.53;4.22;;;;;;;10.65;82.76;100100.41;5137774;27;20198;-68
2023/01/12 11:19:16;;;;;;;22.05;8.52;;;;;;;10.64;81.06;100095.28;5138283;27;20022;-69
2023/01/12 11:21:47;;;;;;;5.25;3.60;;;;;;;10.76;81.09;100099.34;5136971;27;20043;-68
2023/01/12 11:24:31;;;;;;;5.32;3.22;;;;;;;10.79;80.74;100091.91;5136098;27;20046;-67
2023/01/12 11:27:06;;;;;;;5.32;3.10;;;;;;;10.82;81.23;100104.03;5136031;27;20278;-68
2023/01/12 11:29:37;;;;;;;5.70;4.25;;;;;;;10.77;80.91;100096.53;5137934;27;20228;-68
2023/01/12 11:32:24;;;;;;;12.27;6.03;;;;;;;10.89;78.36;100089.16;5137941;27;20095;-69
2023/01/12 11:35:02;;;;;;;5.13;3.70;;;;;;;10.96;78.25;100084.91;5137510;27;20035;-68
2023/01/12 11:37:28;;;;;;;4.28;3.55;;;;;;;11.14;78.62;100082.19;5137777;27;20078;-68
2023/01/12 11:40:04;;;;;;;5.30;3.25;;;;;;;11.27;78.62;100081.75;5138006;27;20051;-68
2023/01/12 11:45:27;;;;;;;11.07;5.65;;;;;;;11.27;77.23;100074.63;5136525;27;20091;-67
2023/01/12 11:48:01;;;;;;;5.47;3.65;;;;;;;11.41;77.86;100081.16;5136924;27;20027;-68
2023/01/12 11:50:32;;;;;;;4.63;3.05;;;;;;;11.33;77.49;100081.97;5137163;27;20039;-68
2023/01/12 11:52:57;;;;;;;6.15;3.65;;;;;;;11.39;77.18;100073.38;5137217;27;20062;-68
2023/01/12 11:55:58;;;;;;;18.23;7.10;;;;;;;11.31;76.20;100065.38;5136883;27;20039;-68
2023/01/12 11:59:02;;;;;;;10.60;4.60;;;;;;;11.41;73.38;100071.38;5139640;27;20114;-69
2023/01/12 12:01:39;;;;;;;13.45;6.13;;;;;;;11.34;74.43;100070.38;5098988;27;20376;-69
2023/01/12 12:04:35;;;;;;;12.82;5.10;;;;;;;11.16;74.70;100066.97;5141362;27;20248;-68
2023/01/12 12:07:16;;;;;;;9.93;4.82;;;;;;;11.06;75.02;100060.94;5141478;27;20144;-68
2023/01/12 12:09:54;;;;;;;8.13;3.85;;;;;;;11.17;75.69;100063.31;5140261;27;20059;-68
2023/01/12 12:12:46;;;;;;;7.82;4.30;;;;;;;11.19;76.05;100059.53;5140880;27;20333;-68
2023/01/12 12:15:20;;;;;;;7.10;4.45;;;;;;;11.07;76.38;100065.25;5140117;27;20047;-70
2023/01/12 12:18:13;;;;;;;4.43;3.38;;;;;;;11.24;76.38;100061.69;5140195;27;20035;-68
2023/01/12 12:21:04;;;;;;;4.57;2.60;;;;;;;11.24;75.83;100059.06;5121576;27;20151;-68
2023/01/12 12:23:44;;;;;;;6.38;3.90;;;;;;;11.31;73.31;100053.94;5137750;27;20106;-68
2023/01/12 12:26:12;;;;;;;5.13;3.72;;;;;;;11.30;74.75;100049.63;5140603;27;20043;-68
2023/01/12 12:29:04;;;;;;;8.25;4.53;;;;;;;11.43;73.55;100050.03;5140324;27;20391;-70
2023/01/12 12:31:56;;;;;;;9.77;5.63;;;;;;;11.57;73.92;100048.59;5138042;27;20119;-68